DRRN/NIM METAR and TAF weather

Enter ICAO airport designator
Station Type Date Time Source
DRRN METAR 2021/07/28 03:00 UTC NOAA

DRRN 280300Z 25003KT CAVOK 25/24 Q1012 NOSIG


Station Type Date Time Source
DRRN Decoded METAR 2021/07/28 03:00 UTC NOAA

Niamey-Aero, Niger (DRRN) 13-29N 002-10E 227M
Jul 27, 2021 - 11:00 PM EDT / 2021.07.28 0300 UTC
Wind: from the WSW (250 degrees) at 3 MPH (3 KT):0
Visibility: greater than 7 mile(s):0
Temperature: 77 F (25 C)
Dew Point: 75 F (24 C)
Relative Humidity: 94%
Pressure (altimeter): 29.88 in. Hg (1012 hPa)
ob: DRRN 280300Z 25003KT CAVOK 25/24 Q1012 NOSIG
cycle: 3

Station Type Date Time Source
DRRN TAF 2021/07/27 18:21 UTC NOAA

TAF DRRN 271700Z 2718/2824 28008KT 9999 FEW016 PROB40
TEMPO 2814/2820 10025G45KT 1200 BLDU TSRA BKN013 FEW020CB

Example: see airport list